createdAt,value
2018-07-21T00:01:57.081Z,4.33
2018-07-21T00:04:25.755Z,4.50
2018-07-21T00:06:54.015Z,4.80
2018-07-21T00:09:22.515Z,5.27
2018-07-21T00:11:50.885Z,4.80
2018-07-21T00:14:19.165Z,4.67
2018-07-21T00:16:47.442Z,4.60
2018-07-21T00:19:15.713Z,4.63
2018-07-21T00:21:44.206Z,4.67
2018-07-21T00:24:12.500Z,4.90
2018-07-21T00:26:46.087Z,5.10
2018-07-21T00:29:14.355Z,4.90
2018-07-21T00:31:42.941Z,4.67
2018-07-21T00:34:11.243Z,5.03
2018-07-21T00:36:40.025Z,4.67
2018-07-21T00:39:11.117Z,4.80
2018-07-21T00:41:39.514Z,5.30
2018-07-21T00:44:08.055Z,5.20
2018-07-21T00:46:36.602Z,4.57
2018-07-21T00:49:05.525Z,4.90
2018-07-21T00:51:33.814Z,5.20
2018-07-21T00:54:02.423Z,5.03
2018-07-21T00:56:30.668Z,5.00
2018-07-21T00:58:59.161Z,5.13
2018-07-21T01:01:27.425Z,5.47
2018-07-21T01:03:55.768Z,4.90
2018-07-21T01:06:24.051Z,5.53
2018-07-21T01:08:52.373Z,5.63
2018-07-21T01:11:20.702Z,5.07
2018-07-21T01:13:49.041Z,5.07
2018-07-21T01:16:18.089Z,5.60
2018-07-21T01:18:46.455Z,5.57
2018-07-21T01:21:14.777Z,5.13
2018-07-21T01:23:43.104Z,5.20
2018-07-21T01:26:11.397Z,5.33
2018-07-21T01:28:39.848Z,5.70
2018-07-21T01:31:08.108Z,5.80
2018-07-21T01:33:36.384Z,6.30
2018-07-21T01:36:04.751Z,6.13
2018-07-21T01:38:33.431Z,6.00
2018-07-21T01:41:01.694Z,7.10
2018-07-21T01:43:29.934Z,6.67
2018-07-21T01:45:58.272Z,7.20
2018-07-21T01:48:26.529Z,7.30
2018-07-21T01:50:54.823Z,7.80
2018-07-21T01:53:23.106Z,7.27
2018-07-21T01:55:51.467Z,8.43
2018-07-21T01:58:19.754Z,8.10
2018-07-21T02:00:48.103Z,8.60
2018-07-21T02:03:16.381Z,8.60
2018-07-21T02:05:44.642Z,9.13
2018-07-21T02:08:12.947Z,9.60
2018-07-21T02:10:41.315Z,9.83
2018-07-21T02:13:09.583Z,10.50
2018-07-21T02:15:37.823Z,10.70
2018-07-21T02:18:06.453Z,10.97
2018-07-21T02:20:34.733Z,10.47
2018-07-21T02:23:03.075Z,9.77
2018-07-21T02:25:31.433Z,11.43
2018-07-21T02:27:59.716Z,11.70
2018-07-21T02:30:28.078Z,11.33
2018-07-21T02:32:56.418Z,11.43
2018-07-21T02:35:24.751Z,12.23
2018-07-21T02:37:53.074Z,12.43
2018-07-21T02:40:21.335Z,11.53
2018-07-21T02:42:49.591Z,10.97
2018-07-21T02:45:17.887Z,12.70
2018-07-21T02:47:46.196Z,11.33
2018-07-21T02:50:14.459Z,12.70
2018-07-21T02:52:42.774Z,12.60
2018-07-21T02:55:11.097Z,13.63
2018-07-21T02:57:39.440Z,13.23
2018-07-21T03:00:07.772Z,13.27
2018-07-21T03:02:36.045Z,13.17
2018-07-21T03:05:04.338Z,13.80
2018-07-21T03:07:32.672Z,13.40
2018-07-21T03:10:01.009Z,12.63
2018-07-21T03:12:29.306Z,13.30
2018-07-21T03:14:57.612Z,11.83
2018-07-21T03:17:25.854Z,13.10
2018-07-21T03:19:54.144Z,12.60
2018-07-21T03:22:22.469Z,12.57
2018-07-21T03:24:50.739Z,12.43
2018-07-21T03:27:19.108Z,12.70
2018-07-21T03:29:47.353Z,14.10
2018-07-21T03:32:15.644Z,14.87
2018-07-21T03:34:43.923Z,13.60
2018-07-21T03:37:12.214Z,13.93
2018-07-21T03:39:40.547Z,13.93
2018-07-21T03:42:08.892Z,13.57
2018-07-21T03:44:37.183Z,13.47
2018-07-21T03:47:05.440Z,15.23
2018-07-21T03:49:33.735Z,14.77
2018-07-21T03:52:02.037Z,16.10
2018-07-21T03:54:30.275Z,14.70
2018-07-21T03:56:58.569Z,15.20
2018-07-21T03:59:26.819Z,16.13
2018-07-21T04:01:55.096Z,16.57
2018-07-21T04:04:23.367Z,14.97
2018-07-21T04:06:51.633Z,15.50
2018-07-21T04:09:19.881Z,15.40
2018-07-21T04:11:48.193Z,15.37
2018-07-21T04:14:16.916Z,15.43
2018-07-21T04:16:45.226Z,15.80
2018-07-21T04:19:13.469Z,15.80
2018-07-21T04:21:41.761Z,17.10
2018-07-21T04:24:10.095Z,16.30
2018-07-21T04:26:38.378Z,16.33
2018-07-21T04:29:06.715Z,16.57
2018-07-21T04:31:34.959Z,16.57
2018-07-21T04:34:03.281Z,17.23
2018-07-21T04:36:31.652Z,17.17
2018-07-21T04:38:59.964Z,16.57
2018-07-21T04:41:28.353Z,17.47
2018-07-21T04:43:56.624Z,16.77
2018-07-21T04:46:24.910Z,16.77
2018-07-21T04:48:53.174Z,16.77
2018-07-21T04:51:21.469Z,16.87
2018-07-21T04:53:49.823Z,16.53
2018-07-21T04:56:18.109Z,16.60
2018-07-21T04:58:46.353Z,17.47
2018-07-21T05:01:14.636Z,16.83
2018-07-21T05:03:42.928Z,17.73
2018-07-21T05:06:11.180Z,17.87
2018-07-21T05:08:39.485Z,16.90
2018-07-21T05:11:07.764Z,17.20
2018-07-21T05:13:36.049Z,18.53
2018-07-21T05:16:04.345Z,17.93
2018-07-21T05:18:32.620Z,18.50
2018-07-21T05:21:00.904Z,18.03
2018-07-21T05:23:29.332Z,18.37
2018-07-21T05:25:57.618Z,18.00
2018-07-21T05:28:25.863Z,17.77
2018-07-21T05:30:54.148Z,19.20
2018-07-21T05:33:22.457Z,16.73
2018-07-21T05:35:50.716Z,18.07
2018-07-21T05:38:18.973Z,19.23
2018-07-21T05:40:47.250Z,18.67
2018-07-21T05:43:15.633Z,19.57
2018-07-21T05:45:43.936Z,20.87
2018-07-21T05:48:12.193Z,19.33
2018-07-21T05:50:41.680Z,20.97
2018-07-21T05:53:09.983Z,21.80
2018-07-21T05:55:38.251Z,19.97
2018-07-21T05:58:06.557Z,20.07
2018-07-21T06:00:36.464Z,21.20
2018-07-21T06:03:04.802Z,21.70
2018-07-21T06:05:33.069Z,22.07
2018-07-21T06:08:01.321Z,23.77
2018-07-21T06:10:29.822Z,22.03
2018-07-21T06:12:58.120Z,21.10
2018-07-21T06:15:26.460Z,22.93
2018-07-21T06:17:54.786Z,21.60
2018-07-21T06:20:23.094Z,23.27
2018-07-21T06:22:51.391Z,22.17
2018-07-21T06:25:19.849Z,23.03
2018-07-21T06:27:48.059Z,22.00
2018-07-21T06:30:16.331Z,21.93
2018-07-21T06:32:44.633Z,20.67
2018-07-21T06:35:12.986Z,21.03
2018-07-21T06:37:41.297Z,20.30
2018-07-21T06:40:09.647Z,20.70
2018-07-21T06:42:37.934Z,21.77
2018-07-21T06:45:06.203Z,20.13
2018-07-21T06:47:34.504Z,20.23
2018-07-21T06:50:03.114Z,19.80
2018-07-21T06:52:31.381Z,19.47
2018-07-21T06:54:59.708Z,19.83
2018-07-21T06:57:27.956Z,19.63
2018-07-21T06:59:56.371Z,20.00
2018-07-21T07:02:24.677Z,20.53
2018-07-21T07:04:52.949Z,21.10
2018-07-21T07:07:21.371Z,19.87
2018-07-21T07:09:49.726Z,21.93
2018-07-21T07:12:17.986Z,21.53
2018-07-21T07:14:46.273Z,21.70
2018-07-21T07:17:14.584Z,20.10
2018-07-21T07:19:42.896Z,21.40
2018-07-21T07:22:11.146Z,20.87
2018-07-21T07:24:39.540Z,19.60
2018-07-21T07:27:07.853Z,20.40
2018-07-21T07:29:36.081Z,21.17
2018-07-21T07:32:04.386Z,21.00
2018-07-21T07:34:32.686Z,20.90
2018-07-21T07:37:01.392Z,20.70
2018-07-21T07:39:29.679Z,19.70
2018-07-21T07:41:57.931Z,20.27
2018-07-21T07:44:26.228Z,20.50
2018-07-21T07:46:54.537Z,20.07
2018-07-21T07:49:22.841Z,19.47
2018-07-21T07:51:51.171Z,22.37
2018-07-21T07:54:20.350Z,21.13
2018-07-21T07:56:48.659Z,22.20
2018-07-21T07:59:16.920Z,22.03
2018-07-21T08:01:45.202Z,22.03
2018-07-21T08:04:13.488Z,23.47
2018-07-21T08:06:41.736Z,23.20
2018-07-21T08:09:11.967Z,23.17
2018-07-21T08:11:40.525Z,23.23
2018-07-21T08:14:08.807Z,22.20
2018-07-21T08:16:37.082Z,21.90
2018-07-21T08:19:06.172Z,23.47
2018-07-21T08:21:34.574Z,22.10
2018-07-21T08:24:02.901Z,20.83
2018-07-21T08:26:31.214Z,21.97
2018-07-21T08:28:59.550Z,22.07
2018-07-21T08:31:27.857Z,21.53
2018-07-21T08:33:56.316Z,20.80
2018-07-21T08:36:24.567Z,21.17
2018-07-21T08:38:52.833Z,21.53
2018-07-21T08:41:21.138Z,22.13
2018-07-21T08:43:49.418Z,20.07
2018-07-21T08:46:17.780Z,19.33
2018-07-21T08:48:46.125Z,19.57
2018-07-21T08:51:14.518Z,17.27
2018-07-21T08:53:42.879Z,17.93
2018-07-21T08:56:11.237Z,18.67
2018-07-21T08:58:39.574Z,17.77
2018-07-21T09:01:07.862Z,17.60
2018-07-21T09:03:36.169Z,18.67
2018-07-21T09:06:04.437Z,15.20
2018-07-21T09:08:32.731Z,15.10
2018-07-21T09:11:00.992Z,14.63
2018-07-21T09:13:29.362Z,18.63
2018-07-21T09:15:57.605Z,18.17
2018-07-21T09:18:25.846Z,17.13
2018-07-21T09:20:54.194Z,16.30
2018-07-21T09:23:22.521Z,15.97
2018-07-21T09:25:50.838Z,15.57
2018-07-21T09:28:19.132Z,12.83
2018-07-21T09:30:47.387Z,13.70
2018-07-21T09:33:15.668Z,12.10
2018-07-21T09:35:44.230Z,14.30
2018-07-21T09:38:12.507Z,13.10
2018-07-21T09:40:40.763Z,15.13
2018-07-21T09:43:14.696Z,14.30
2018-07-21T09:45:42.989Z,11.60
2018-07-21T09:48:11.266Z,13.40
2018-07-21T09:50:39.588Z,13.67
2018-07-21T09:53:07.832Z,10.10
2018-07-21T09:55:36.191Z,8.83
2018-07-21T09:58:04.443Z,9.07
2018-07-21T10:00:38.051Z,10.13
2018-07-21T10:03:06.604Z,8.93
2018-07-21T10:05:34.900Z,8.57
2018-07-21T10:08:03.413Z,8.17
2018-07-21T10:10:31.733Z,8.40
2018-07-21T10:13:00.037Z,9.03
2018-07-21T10:15:28.451Z,8.70
2018-07-21T10:17:56.757Z,8.37
2018-07-21T10:20:25.060Z,8.67
2018-07-21T10:22:53.384Z,9.77
2018-07-21T10:25:27.084Z,8.57
2018-07-21T10:28:00.711Z,8.67
2018-07-21T10:30:29.007Z,9.27
2018-07-21T10:32:57.289Z,9.53
2018-07-21T10:35:25.575Z,7.83
2018-07-21T10:37:53.861Z,8.07
2018-07-21T10:40:22.122Z,7.73
2018-07-21T10:42:50.419Z,7.90
2018-07-21T10:45:18.750Z,8.47
2018-07-21T10:47:47.007Z,8.00
2018-07-21T10:50:15.642Z,7.87
2018-07-21T10:52:43.886Z,8.47
2018-07-21T10:55:12.466Z,8.40
2018-07-21T10:57:40.743Z,9.07
2018-07-21T11:00:09.187Z,8.97
2018-07-21T11:02:37.472Z,8.80
2018-07-21T11:05:06.699Z,8.47
2018-07-21T11:07:35.024Z,8.03
2018-07-21T11:10:03.443Z,7.50
2018-07-21T11:12:31.746Z,8.00
2018-07-21T11:15:00.010Z,7.83
2018-07-21T11:17:28.263Z,7.87
2018-07-21T11:19:56.618Z,7.63
2018-07-21T11:22:24.916Z,7.30
2018-07-21T11:24:53.299Z,7.90
2018-07-21T11:27:21.590Z,7.40
2018-07-21T11:29:49.830Z,7.90
2018-07-21T11:32:18.084Z,7.60
2018-07-21T11:34:46.403Z,8.00
2018-07-21T11:37:14.678Z,7.97
2018-07-21T11:39:43.210Z,8.60
2018-07-21T11:42:11.484Z,7.80
2018-07-21T11:44:39.761Z,8.23
2018-07-21T11:47:08.114Z,8.30
2018-07-21T11:49:36.377Z,7.70
2018-07-21T11:52:04.886Z,8.40
2018-07-21T11:54:33.233Z,8.03
2018-07-21T11:57:02.541Z,7.93
2018-07-21T11:59:32.032Z,7.10
2018-07-21T12:02:00.324Z,7.33
2018-07-21T12:04:29.532Z,8.10
2018-07-21T12:06:57.851Z,8.43
2018-07-21T12:09:26.338Z,8.10
2018-07-21T12:11:55.039Z,8.00
2018-07-21T12:14:23.503Z,8.80
2018-07-21T12:16:51.806Z,9.07
2018-07-21T12:19:20.092Z,8.80
2018-07-21T12:21:48.403Z,9.40
2018-07-21T12:24:16.687Z,8.90
2018-07-21T12:26:44.941Z,8.37
2018-07-21T12:29:13.305Z,8.67
2018-07-21T12:31:41.580Z,8.70
2018-07-21T12:34:09.941Z,9.20
2018-07-21T12:36:38.436Z,9.83
2018-07-21T12:39:08.420Z,9.60
2018-07-21T12:41:36.779Z,8.63
2018-07-21T12:44:05.133Z,9.17
2018-07-21T12:46:33.428Z,9.30
2018-07-21T12:49:01.896Z,8.37
2018-07-21T12:51:30.194Z,8.90
2018-07-21T12:53:58.475Z,8.90
2018-07-21T12:56:26.774Z,8.27
2018-07-21T12:58:55.054Z,8.10
2018-07-21T13:01:23.411Z,7.83
2018-07-21T13:03:51.705Z,8.50
2018-07-21T13:06:20.002Z,7.90
2018-07-21T13:08:48.246Z,8.73
2018-07-21T13:11:16.601Z,8.80
2018-07-21T13:13:44.898Z,8.97
2018-07-21T13:16:13.209Z,8.33
2018-07-21T13:18:41.543Z,8.73
2018-07-21T13:21:09.894Z,8.00
2018-07-21T13:23:38.205Z,8.03
2018-07-21T13:26:06.629Z,8.17
2018-07-21T13:28:34.948Z,8.77
2018-07-21T13:31:03.294Z,9.07
2018-07-21T13:33:31.614Z,7.77
2018-07-21T13:35:59.928Z,8.30
2018-07-21T13:38:28.277Z,9.03
2018-07-21T13:40:56.574Z,9.23
2018-07-21T13:43:25.007Z,9.07
2018-07-21T13:45:53.335Z,9.80
2018-07-21T13:48:21.632Z,9.30
2018-07-21T13:50:49.873Z,8.90
2018-07-21T13:53:18.697Z,8.90
2018-07-21T13:55:46.971Z,8.83
2018-07-21T13:58:15.254Z,8.70
2018-07-21T14:00:43.563Z,9.67
2018-07-21T14:03:11.827Z,8.97
2018-07-21T14:05:40.213Z,8.60
2018-07-21T14:08:08.566Z,8.67
2018-07-21T14:10:36.850Z,8.40
2018-07-21T14:13:05.173Z,8.90
2018-07-21T14:15:33.465Z,9.07
2018-07-21T14:18:01.817Z,9.80
2018-07-21T14:20:30.229Z,10.00
2018-07-21T14:22:58.703Z,9.47
2018-07-21T14:25:27.011Z,9.37
2018-07-21T14:27:55.313Z,9.20
2018-07-21T14:30:23.598Z,8.90
2018-07-21T14:32:51.882Z,9.47
2018-07-21T14:35:20.223Z,9.23
2018-07-21T14:37:48.692Z,9.53
2018-07-21T14:40:17.014Z,9.47
2018-07-21T14:42:45.344Z,9.07
2018-07-21T14:45:13.582Z,8.20
2018-07-21T14:47:41.910Z,8.20
2018-07-21T14:50:10.156Z,8.87
2018-07-21T14:52:38.503Z,8.83
2018-07-21T14:55:06.898Z,8.20
2018-07-21T14:57:35.144Z,8.27
2018-07-21T15:00:03.662Z,8.30
2018-07-21T15:02:31.896Z,7.55
2018-07-21T15:05:00.179Z,7.73
2018-07-21T15:07:28.438Z,7.30
2018-07-21T15:09:56.722Z,7.20
2018-07-21T15:12:25.029Z,7.87
2018-07-21T15:14:53.331Z,7.40
2018-07-21T15:17:21.607Z,8.40
2018-07-21T15:19:50.101Z,8.40
2018-07-21T15:22:18.361Z,8.73
2018-07-21T15:24:46.718Z,8.67
2018-07-21T15:27:15.271Z,9.70
2018-07-21T15:29:43.576Z,9.53
2018-07-21T15:32:12.140Z,9.20
2018-07-21T15:34:40.437Z,9.33
2018-07-21T15:37:08.845Z,8.60
2018-07-21T15:39:37.208Z,9.40
2018-07-21T15:42:05.517Z,9.53
2018-07-21T15:44:33.839Z,8.67
2018-07-21T15:47:02.145Z,9.07
2018-07-21T15:49:30.507Z,9.47
2018-07-21T15:51:58.841Z,9.60
2018-07-21T15:54:27.559Z,8.73
2018-07-21T15:56:55.923Z,9.30
2018-07-21T15:59:24.279Z,9.80
2018-07-21T16:01:52.556Z,8.80
2018-07-21T16:04:20.858Z,8.93
2018-07-21T16:06:49.168Z,8.93
2018-07-21T16:09:17.575Z,9.00
2018-07-21T16:11:45.932Z,8.60
2018-07-21T16:14:14.507Z,9.13
2018-07-21T16:16:42.856Z,9.17
2018-07-21T16:19:11.470Z,8.80
2018-07-21T16:21:39.804Z,8.70
2018-07-21T16:24:08.098Z,9.13
2018-07-21T16:26:36.487Z,8.87
2018-07-21T16:29:04.848Z,9.40
2018-07-21T16:31:33.253Z,9.33
2018-07-21T16:34:01.499Z,8.33
2018-07-21T16:36:29.745Z,8.77
2018-07-21T16:38:58.055Z,8.87
2018-07-21T16:41:26.329Z,8.30
2018-07-21T16:43:54.629Z,8.57
2018-07-21T16:46:22.972Z,8.33
2018-07-21T16:48:51.235Z,8.80
2018-07-21T16:51:19.506Z,9.33
2018-07-21T16:53:47.955Z,9.83
2018-07-21T16:56:16.251Z,10.30
2018-07-21T16:58:44.712Z,9.27
2018-07-21T17:01:13.025Z,9.20
2018-07-21T17:03:41.333Z,9.33
2018-07-21T17:06:09.622Z,9.77
2018-07-21T17:08:37.901Z,9.63
2018-07-21T17:11:06.392Z,9.33
2018-07-21T17:13:35.086Z,9.40
2018-07-21T17:16:03.712Z,9.30
2018-07-21T17:18:32.062Z,9.40
2018-07-21T17:21:00.625Z,9.67
2018-07-21T17:23:28.939Z,9.80
2018-07-21T17:25:57.211Z,9.37
2018-07-21T17:28:25.663Z,10.23
2018-07-21T17:30:53.929Z,9.37
2018-07-21T17:33:22.233Z,10.07
2018-07-21T17:35:50.574Z,10.47
2018-07-21T17:38:18.851Z,9.57
2018-07-21T17:40:47.170Z,9.60
2018-07-21T17:43:15.499Z,9.50
2018-07-21T17:45:43.780Z,9.33
2018-07-21T17:48:12.118Z,8.83
2018-07-21T17:50:40.460Z,9.23
2018-07-21T17:53:08.771Z,9.30
2018-07-21T17:55:37.037Z,8.83
2018-07-21T17:58:05.673Z,8.70
2018-07-21T18:00:33.945Z,8.67
2018-07-21T18:03:02.244Z,9.03
2018-07-21T18:05:30.620Z,10.03
2018-07-21T18:07:58.974Z,10.13
2018-07-21T18:10:27.363Z,10.00
2018-07-21T18:12:55.769Z,9.60
2018-07-21T18:15:24.032Z,10.07
2018-07-21T18:17:52.481Z,10.17
2018-07-21T18:20:20.847Z,9.07
2018-07-21T18:22:49.121Z,10.17
2018-07-21T18:25:17.626Z,9.63
2018-07-21T18:27:46.119Z,9.90
2018-07-21T18:30:14.644Z,9.63
2018-07-21T18:32:42.883Z,8.77
2018-07-21T18:35:11.148Z,8.77
2018-07-21T18:37:40.310Z,9.60
2018-07-21T18:40:08.873Z,9.10
2018-07-21T18:42:37.238Z,8.97
2018-07-21T18:45:06.250Z,9.33
2018-07-21T18:47:34.529Z,9.07
2018-07-21T18:50:03.086Z,9.30
2018-07-21T18:52:32.432Z,9.87
2018-07-21T18:55:01.048Z,9.87
2018-07-21T18:57:32.455Z,9.90
2018-07-21T19:00:00.713Z,9.70
2018-07-21T19:02:29.004Z,9.47
2018-07-21T19:04:57.540Z,9.20
2018-07-21T19:07:26.061Z,10.07
2018-07-21T19:09:54.439Z,9.10
2018-07-21T19:12:28.189Z,9.53
2018-07-21T19:14:56.499Z,8.67
2018-07-21T19:17:24.744Z,9.40
2018-07-21T19:19:58.337Z,9.33
2018-07-21T19:22:26.830Z,10.00
2018-07-21T19:24:55.109Z,9.83
2018-07-21T19:27:28.685Z,9.40
2018-07-21T19:29:56.991Z,9.80
2018-07-21T19:32:30.472Z,10.43
2018-07-21T19:34:58.792Z,9.77
2018-07-21T19:37:32.293Z,9.40
2018-07-21T19:40:00.639Z,9.87
2018-07-21T19:42:28.972Z,10.77
2018-07-21T19:44:57.402Z,9.80
2018-07-21T19:47:25.909Z,10.63
2018-07-21T19:49:54.113Z,10.67
2018-07-21T19:52:22.366Z,11.10
2018-07-21T19:54:50.718Z,10.50
2018-07-21T19:57:19.043Z,10.10
2018-07-21T19:59:47.380Z,10.13
2018-07-21T20:02:15.744Z,10.67
2018-07-21T20:04:44.149Z,9.80
2018-07-21T20:07:12.415Z,10.07
2018-07-21T20:09:43.530Z,9.30
2018-07-21T20:12:11.830Z,10.30
2018-07-21T20:14:40.199Z,10.20
2018-07-21T20:17:08.489Z,9.87
2018-07-21T20:19:36.794Z,9.77
2018-07-21T20:22:05.111Z,9.90
2018-07-21T20:24:33.431Z,10.00
2018-07-21T20:27:01.780Z,9.80
2018-07-21T20:29:30.069Z,9.10
2018-07-21T20:31:58.463Z,9.23
2018-07-21T20:34:26.809Z,9.67
2018-07-21T20:36:55.122Z,10.07
2018-07-21T20:39:23.408Z,9.43
2018-07-21T20:41:51.880Z,9.90
2018-07-21T20:44:20.174Z,9.37
2018-07-21T20:46:48.464Z,9.03
2018-07-21T20:49:17.273Z,9.50
2018-07-21T20:51:45.633Z,9.30
2018-07-21T20:54:13.897Z,8.53
2018-07-21T20:56:42.210Z,9.27
2018-07-21T20:59:10.508Z,9.23
2018-07-21T21:01:38.752Z,9.07
2018-07-21T21:04:07.016Z,9.17
2018-07-21T21:06:35.340Z,9.50
2018-07-21T21:09:04.183Z,9.90
2018-07-21T21:11:32.465Z,10.17
2018-07-21T21:14:00.812Z,10.10
2018-07-21T21:16:29.188Z,9.67
2018-07-21T21:18:57.533Z,10.53
2018-07-21T21:21:25.836Z,9.50
2018-07-21T21:23:54.170Z,11.13
2018-07-21T21:26:22.441Z,11.07
2018-07-21T21:28:52.592Z,11.77
2018-07-21T21:31:20.871Z,11.33
2018-07-21T21:33:49.150Z,12.10
2018-07-21T21:36:17.867Z,11.83
2018-07-21T21:38:46.191Z,12.10
2018-07-21T21:41:14.428Z,11.80
2018-07-21T21:43:42.753Z,12.20
2018-07-21T21:46:11.048Z,11.93
2018-07-21T21:48:39.320Z,12.43
2018-07-21T21:51:07.589Z,13.33
2018-07-21T21:53:35.909Z,13.90
2018-07-21T21:56:04.359Z,13.07
2018-07-21T21:58:32.715Z,14.00
2018-07-21T22:01:13.781Z,13.03
2018-07-21T22:03:42.341Z,13.70
2018-07-21T22:06:10.759Z,13.37
2018-07-21T22:08:39.087Z,14.00
2018-07-21T22:11:07.514Z,13.10
2018-07-21T22:13:35.754Z,13.50
2018-07-21T22:16:04.088Z,14.27
2018-07-21T22:18:32.614Z,14.60
2018-07-21T22:21:00.919Z,15.07
2018-07-21T22:23:29.329Z,14.73
2018-07-21T22:25:57.626Z,14.33
2018-07-21T22:28:25.926Z,14.67
2018-07-21T22:30:54.190Z,16.00
2018-07-21T22:33:22.516Z,15.80
2018-07-21T22:35:50.806Z,16.27
2018-07-21T22:38:19.270Z,15.70
2018-07-21T22:40:47.577Z,16.37
2018-07-21T22:43:15.890Z,15.27
2018-07-21T22:45:44.224Z,16.27
2018-07-21T22:48:12.556Z,16.50
2018-07-21T22:50:41.688Z,17.33
2018-07-21T22:53:09.964Z,17.17
2018-07-21T22:55:38.331Z,16.63
2018-07-21T22:58:06.593Z,17.23
2018-07-21T23:00:35.043Z,17.07
2018-07-21T23:03:03.333Z,17.30
2018-07-21T23:05:31.600Z,17.70
2018-07-21T23:07:59.897Z,16.93
2018-07-21T23:10:28.148Z,18.50
2018-07-21T23:12:56.484Z,16.83
2018-07-21T23:15:24.821Z,18.80
2018-07-21T23:17:53.106Z,17.23
2018-07-21T23:20:21.552Z,17.73
2018-07-21T23:22:49.804Z,19.23
2018-07-21T23:25:18.195Z,17.57
2018-07-21T23:27:46.477Z,18.97
2018-07-21T23:30:14.800Z,19.63
2018-07-21T23:32:43.063Z,17.43
2018-07-21T23:35:11.464Z,18.43
2018-07-21T23:37:39.721Z,18.53
2018-07-21T23:40:08.385Z,18.17
2018-07-21T23:42:36.637Z,18.20
2018-07-21T23:45:04.971Z,19.33
2018-07-21T23:47:33.240Z,20.07
2018-07-21T23:50:01.514Z,19.57
2018-07-21T23:52:29.808Z,19.37
2018-07-21T23:54:58.088Z,18.83
2018-07-21T23:57:26.353Z,18.57
2018-07-21T23:59:54.658Z,19.40
